sensor_id;sensor_type;location;lat;lon;timestamp;temperature;humidity
71206;SHT31;58935;54.498;18.544;2023-07-13T00:01:26;16.43;79.32
71206;SHT31;58935;54.498;18.544;2023-07-13T00:03:52;16.44;79.23
71206;SHT31;58935;54.498;18.544;2023-07-13T00:06:18;16.47;79.22
71206;SHT31;58935;54.498;18.544;2023-07-13T00:08:45;16.47;79.17
71206;SHT31;58935;54.498;18.544;2023-07-13T00:11:10;16.47;79.10
71206;SHT31;58935;54.498;18.544;2023-07-13T00:13:36;16.46;79.10
71206;SHT31;58935;54.498;18.544;2023-07-13T00:16:03;16.44;79.10
71206;SHT31;58935;54.498;18.544;2023-07-13T00:18:28;16.40;79.11
71206;SHT31;58935;54.498;18.544;2023-07-13T00:20:55;16.35;79.20
71206;SHT31;58935;54.498;18.544;2023-07-13T00:23:21;16.33;79.24
71206;SHT31;58935;54.498;18.544;2023-07-13T00:25:48;16.29;79.31
71206;SHT31;58935;54.498;18.544;2023-07-13T00:28:15;16.27;79.42
71206;SHT31;58935;54.498;18.544;2023-07-13T00:30:41;16.25;79.51
71206;SHT31;58935;54.498;18.544;2023-07-13T00:33:06;16.23;79.60
71206;SHT31;58935;54.498;18.544;2023-07-13T00:35:32;16.21;79.58
71206;SHT31;58935;54.498;18.544;2023-07-13T00:37:59;16.19;79.66
71206;SHT31;58935;54.498;18.544;2023-07-13T00:40:24;16.19;79.89
71206;SHT31;58935;54.498;18.544;2023-07-13T00:42:51;16.17;80.00
71206;SHT31;58935;54.498;18.544;2023-07-13T00:48:35;16.16;80.04
71206;SHT31;58935;54.498;18.544;2023-07-13T00:51:03;16.17;80.11
71206;SHT31;58935;54.498;18.544;2023-07-13T00:53:29;16.16;80.11
71206;SHT31;58935;54.498;18.544;2023-07-13T00:55:57;16.16;80.19
71206;SHT31;58935;54.498;18.544;2023-07-13T00:58:25;16.16;80.32
71206;SHT31;58935;54.498;18.544;2023-07-13T01:00:52;16.18;80.40
71206;SHT31;58935;54.498;18.544;2023-07-13T01:03:18;16.19;80.40
71206;SHT31;58935;54.498;18.544;2023-07-13T01:05:44;16.17;80.38
71206;SHT31;58935;54.498;18.544;2023-07-13T01:08:14;16.17;80.39
71206;SHT31;58935;54.498;18.544;2023-07-13T01:10:40;16.15;80.39
71206;SHT31;58935;54.498;18.544;2023-07-13T01:13:07;16.14;80.39
71206;SHT31;58935;54.498;18.544;2023-07-13T01:15:36;16.12;80.40
71206;SHT31;58935;54.498;18.544;2023-07-13T01:18:09;16.11;80.38
71206;SHT31;58935;54.498;18.544;2023-07-13T01:20:38;16.09;80.34
71206;SHT31;58935;54.498;18.544;2023-07-13T01:23:06;16.06;80.42
71206;SHT31;58935;54.498;18.544;2023-07-13T01:25:35;16.05;80.43
71206;SHT31;58935;54.498;18.544;2023-07-13T01:28:06;16.04;80.60
71206;SHT31;58935;54.498;18.544;2023-07-13T01:30:37;16.05;80.79
71206;SHT31;58935;54.498;18.544;2023-07-13T01:33:05;16.05;80.79
71206;SHT31;58935;54.498;18.544;2023-07-13T01:35:33;16.05;80.76
71206;SHT31;58935;54.498;18.544;2023-07-13T01:37:59;16.06;80.91
71206;SHT31;58935;54.498;18.544;2023-07-13T01:40:26;16.10;81.40
71206;SHT31;58935;54.498;18.544;2023-07-13T01:42:53;16.11;81.62
71206;SHT31;58935;54.498;18.544;2023-07-13T01:45:19;16.15;81.54
71206;SHT31;58935;54.498;18.544;2023-07-13T01:47:44;16.18;81.57
71206;SHT31;58935;54.498;18.544;2023-07-13T01:50:09;16.21;81.59
71206;SHT31;58935;54.498;18.544;2023-07-13T01:52:35;16.24;81.60
71206;SHT31;58935;54.498;18.544;2023-07-13T01:55:01;16.25;81.50
71206;SHT31;58935;54.498;18.544;2023-07-13T01:57:27;16.28;81.47
71206;SHT31;58935;54.498;18.544;2023-07-13T01:59:53;16.30;81.35
71206;SHT31;58935;54.498;18.544;2023-07-13T02:02:18;16.29;81.23
71206;SHT31;58935;54.498;18.544;2023-07-13T02:04:44;16.26;81.16
71206;SHT31;58935;54.498;18.544;2023-07-13T02:07:10;16.24;81.10
71206;SHT31;58935;54.498;18.544;2023-07-13T02:09:35;16.24;81.15
71206;SHT31;58935;54.498;18.544;2023-07-13T02:12:00;16.23;81.19
71206;SHT31;58935;54.498;18.544;2023-07-13T02:14:27;16.21;81.23
71206;SHT31;58935;54.498;18.544;2023-07-13T02:16:52;16.20;81.27
71206;SHT31;58935;54.498;18.544;2023-07-13T02:19:17;16.17;81.27
71206;SHT31;58935;54.498;18.544;2023-07-13T02:21:43;16.17;81.36
71206;SHT31;58935;54.498;18.544;2023-07-13T02:24:08;16.17;81.48
71206;SHT31;58935;54.498;18.544;2023-07-13T02:26:34;16.18;81.58
71206;SHT31;58935;54.498;18.544;2023-07-13T02:29:01;16.18;81.60
71206;SHT31;58935;54.498;18.544;2023-07-13T02:31:26;16.18;81.66
71206;SHT31;58935;54.498;18.544;2023-07-13T02:33:51;16.17;81.70
71206;SHT31;58935;54.498;18.544;2023-07-13T02:36:16;16.16;81.70
71206;SHT31;58935;54.498;18.544;2023-07-13T02:38:43;16.16;81.70
71206;SHT31;58935;54.498;18.544;2023-07-13T02:41:09;16.15;81.59
71206;SHT31;58935;54.498;18.544;2023-07-13T02:43:36;16.14;81.59
71206;SHT31;58935;54.498;18.544;2023-07-13T02:46:03;16.13;81.58
71206;SHT31;58935;54.498;18.544;2023-07-13T02:48:32;16.12;81.60
71206;SHT31;58935;54.498;18.544;2023-07-13T02:50:59;16.10;81.60
71206;SHT31;58935;54.498;18.544;2023-07-13T02:53:24;16.10;81.67
71206;SHT31;58935;54.498;18.544;2023-07-13T02:55:50;16.09;81.74
71206;SHT31;58935;54.498;18.544;2023-07-13T02:58:16;16.08;81.79
71206;SHT31;58935;54.498;18.544;2023-07-13T03:00:43;16.08;81.80
71206;SHT31;58935;54.498;18.544;2023-07-13T03:03:10;16.08;81.87
71206;SHT31;58935;54.498;18.544;2023-07-13T03:05:37;16.09;81.93
71206;SHT31;58935;54.498;18.544;2023-07-13T03:08:05;16.10;82.05
71206;SHT31;58935;54.498;18.544;2023-07-13T03:10:31;16.13;82.27
71206;SHT31;58935;54.498;18.544;2023-07-13T03:12:57;16.18;82.50
71206;SHT31;58935;54.498;18.544;2023-07-13T03:15:22;16.24;82.73
71206;SHT31;58935;54.498;18.544;2023-07-13T03:17:48;16.30;82.88
71206;SHT31;58935;54.498;18.544;2023-07-13T03:20:14;16.34;82.97
71206;SHT31;58935;54.498;18.544;2023-07-13T03:22:40;16.39;82.89
71206;SHT31;58935;54.498;18.544;2023-07-13T03:25:07;16.45;82.94
71206;SHT31;58935;54.498;18.544;2023-07-13T03:27:33;16.50;82.99
71206;SHT31;58935;54.498;18.544;2023-07-13T03:29:58;16.58;82.94
71206;SHT31;58935;54.498;18.544;2023-07-13T03:32:24;16.65;82.94
71206;SHT31;58935;54.498;18.544;2023-07-13T03:34:49;16.71;82.93
71206;SHT31;58935;54.498;18.544;2023-07-13T03:37:15;16.75;82.94
71206;SHT31;58935;54.498;18.544;2023-07-13T03:39:40;16.81;83.01
71206;SHT31;58935;54.498;18.544;2023-07-13T03:42:07;16.85;82.99
71206;SHT31;58935;54.498;18.544;2023-07-13T03:44:33;16.91;82.97
71206;SHT31;58935;54.498;18.544;2023-07-13T03:46:58;16.97;82.90
71206;SHT31;58935;54.498;18.544;2023-07-13T03:49:23;17.03;82.87
71206;SHT31;58935;54.498;18.544;2023-07-13T03:51:49;17.09;82.77
71206;SHT31;58935;54.498;18.544;2023-07-13T03:54:14;17.16;82.70
71206;SHT31;58935;54.498;18.544;2023-07-13T03:56:40;17.22;82.57
71206;SHT31;58935;54.498;18.544;2023-07-13T03:59:05;17.28;82.45
71206;SHT31;58935;54.498;18.544;2023-07-13T04:01:30;17.33;82.34
71206;SHT31;58935;54.498;18.544;2023-07-13T04:03:56;17.38;82.21
71206;SHT31;58935;54.498;18.544;2023-07-13T04:06:23;17.42;82.06
71206;SHT31;58935;54.498;18.544;2023-07-13T04:08:55;17.46;81.96
71206;SHT31;58935;54.498;18.544;2023-07-13T04:11:24;17.52;81.83
71206;SHT31;58935;54.498;18.544;2023-07-13T04:13:54;17.58;81.74
71206;SHT31;58935;54.498;18.544;2023-07-13T04:16:20;17.65;81.56
71206;SHT31;58935;54.498;18.544;2023-07-13T04:18:46;17.72;81.39
71206;SHT31;58935;54.498;18.544;2023-07-13T04:21:13;17.79;81.28
71206;SHT31;58935;54.498;18.544;2023-07-13T04:23:40;17.85;81.18
71206;SHT31;58935;54.498;18.544;2023-07-13T04:26:06;17.91;81.06
71206;SHT31;58935;54.498;18.544;2023-07-13T04:28:32;17.98;80.92
71206;SHT31;58935;54.498;18.544;2023-07-13T04:30:59;18.04;80.75
71206;SHT31;58935;54.498;18.544;2023-07-13T04:33:25;18.10;80.64
71206;SHT31;58935;54.498;18.544;2023-07-13T04:35:53;18.17;80.48
71206;SHT31;58935;54.498;18.544;2023-07-13T04:38:23;18.24;80.30
71206;SHT31;58935;54.498;18.544;2023-07-13T04:40:52;18.31;80.18
71206;SHT31;58935;54.498;18.544;2023-07-13T04:43:23;18.37;79.97
71206;SHT31;58935;54.498;18.544;2023-07-13T04:45:50;18.43;79.81
71206;SHT31;58935;54.498;18.544;2023-07-13T04:48:17;18.49;79.69
71206;SHT31;58935;54.498;18.544;2023-07-13T04:50:42;18.54;79.52
71206;SHT31;58935;54.498;18.544;2023-07-13T04:53:08;18.59;79.35
71206;SHT31;58935;54.498;18.544;2023-07-13T04:55:35;18.66;79.27
71206;SHT31;58935;54.498;18.544;2023-07-13T04:58:01;18.73;79.11
71206;SHT31;58935;54.498;18.544;2023-07-13T05:00:28;18.80;78.91
71206;SHT31;58935;54.498;18.544;2023-07-13T05:02:55;18.86;78.58
71206;SHT31;58935;54.498;18.544;2023-07-13T05:05:23;18.94;78.52
71206;SHT31;58935;54.498;18.544;2023-07-13T05:07:51;19.03;78.08
71206;SHT31;58935;54.498;18.544;2023-07-13T05:10:18;19.10;77.86
71206;SHT31;58935;54.498;18.544;2023-07-13T05:12:44;19.19;77.88
71206;SHT31;58935;54.498;18.544;2023-07-13T05:15:10;19.29;77.62
71206;SHT31;58935;54.498;18.544;2023-07-13T05:17:36;19.38;77.14
71206;SHT31;58935;54.498;18.544;2023-07-13T05:20:04;19.45;76.91
71206;SHT31;58935;54.498;18.544;2023-07-13T05:22:31;19.50;76.69
71206;SHT31;58935;54.498;18.544;2023-07-13T05:24:57;19.54;76.49
71206;SHT31;58935;54.498;18.544;2023-07-13T05:27:22;19.58;76.28
71206;SHT31;58935;54.498;18.544;2023-07-13T05:29:48;19.61;76.22
71206;SHT31;58935;54.498;18.544;2023-07-13T05:32:14;19.67;76.18
71206;SHT31;58935;54.498;18.544;2023-07-13T05:34:42;19.70;75.68
71206;SHT31;58935;54.498;18.544;2023-07-13T05:37:09;19.72;75.41
71206;SHT31;58935;54.498;18.544;2023-07-13T05:39:35;19.75;75.11
71206;SHT31;58935;54.498;18.544;2023-07-13T05:42:01;19.78;75.03
71206;SHT31;58935;54.498;18.544;2023-07-13T05:44:27;19.82;74.77
71206;SHT31;58935;54.498;18.544;2023-07-13T05:46:53;19.84;74.77
71206;SHT31;58935;54.498;18.544;2023-07-13T05:49:20;19.91;74.73
71206;SHT31;58935;54.498;18.544;2023-07-13T05:51:45;19.94;74.18
71206;SHT31;58935;54.498;18.544;2023-07-13T05:54:10;19.99;74.02
71206;SHT31;58935;54.498;18.544;2023-07-13T05:56:36;20.02;73.47
71206;SHT31;58935;54.498;18.544;2023-07-13T05:59:01;20.05;73.53
71206;SHT31;58935;54.498;18.544;2023-07-13T06:01:26;20.11;73.54
71206;SHT31;58935;54.498;18.544;2023-07-13T06:03:51;20.16;73.04
71206;SHT31;58935;54.498;18.544;2023-07-13T06:06:17;20.20;72.67
71206;SHT31;58935;54.498;18.544;2023-07-13T06:08:42;20.23;72.00
71206;SHT31;58935;54.498;18.544;2023-07-13T06:13:49;20.31;72.22
71206;SHT31;58935;54.498;18.544;2023-07-13T06:16:15;20.41;72.00
71206;SHT31;58935;54.498;18.544;2023-07-13T06:18:41;20.49;71.89
71206;SHT31;58935;54.498;18.544;2023-07-13T06:21:09;20.57;71.67
71206;SHT31;58935;54.498;18.544;2023-07-13T06:23:39;20.62;70.65
71206;SHT31;58935;54.498;18.544;2023-07-13T06:26:05;20.66;70.24
71206;SHT31;58935;54.498;18.544;2023-07-13T06:28:31;20.67;69.82
71206;SHT31;58935;54.498;18.544;2023-07-13T06:30:57;20.71;69.90
71206;SHT31;58935;54.498;18.544;2023-07-13T06:33:24;20.74;69.64
71206;SHT31;58935;54.498;18.544;2023-07-13T06:35:50;20.73;68.84
71206;SHT31;58935;54.498;18.544;2023-07-13T06:38:16;20.71;68.53
71206;SHT31;58935;54.498;18.544;2023-07-13T06:44:23;20.70;67.61
71206;SHT31;58935;54.498;18.544;2023-07-13T06:46:48;20.75;67.07
71206;SHT31;58935;54.498;18.544;2023-07-13T06:49:13;20.79;67.14
71206;SHT31;58935;54.498;18.544;2023-07-13T06:51:39;20.83;66.61
71206;SHT31;58935;54.498;18.544;2023-07-13T06:54:04;20.85;66.39
71206;SHT31;58935;54.498;18.544;2023-07-13T06:56:29;20.90;66.18
71206;SHT31;58935;54.498;18.544;2023-07-13T06:58:55;20.94;65.64
71206;SHT31;58935;54.498;18.544;2023-07-13T07:01:20;20.92;65.15
71206;SHT31;58935;54.498;18.544;2023-07-13T07:03:46;20.89;65.33
71206;SHT31;58935;54.498;18.544;2023-07-13T07:06:13;20.92;65.30
71206;SHT31;58935;54.498;18.544;2023-07-13T07:08:44;20.98;64.70
71206;SHT31;58935;54.498;18.544;2023-07-13T07:11:12;21.04;64.83
71206;SHT31;58935;54.498;18.544;2023-07-13T07:13:39;21.09;64.66
71206;SHT31;58935;54.498;18.544;2023-07-13T07:16:05;21.17;64.92
71206;SHT31;58935;54.498;18.544;2023-07-13T07:18:31;21.24;64.77
71206;SHT31;58935;54.498;18.544;2023-07-13T07:20:57;21.28;64.26
71206;SHT31;58935;54.498;18.544;2023-07-13T07:23:22;21.28;63.33
71206;SHT31;58935;54.498;18.544;2023-07-13T07:25:47;21.31;63.54
71206;SHT31;58935;54.498;18.544;2023-07-13T07:28:14;21.37;63.13
71206;SHT31;58935;54.498;18.544;2023-07-13T07:30:45;21.43;62.61
71206;SHT31;58935;54.498;18.544;2023-07-13T07:33:11;21.47;61.99
71206;SHT31;58935;54.498;18.544;2023-07-13T07:35:37;21.48;62.44
71206;SHT31;58935;54.498;18.544;2023-07-13T07:38:03;21.51;61.81
71206;SHT31;58935;54.498;18.544;2023-07-13T07:40:29;21.57;62.57
71206;SHT31;58935;54.498;18.544;2023-07-13T07:42:54;21.65;61.77
71206;SHT31;58935;54.498;18.544;2023-07-13T07:45:20;21.70;61.56
71206;SHT31;58935;54.498;18.544;2023-07-13T07:47:46;21.75;61.60
71206;SHT31;58935;54.498;18.544;2023-07-13T07:50:12;21.79;62.22
71206;SHT31;58935;54.498;18.544;2023-07-13T07:52:38;21.81;62.11
71206;SHT31;58935;54.498;18.544;2023-07-13T07:55:04;21.77;60.79
71206;SHT31;58935;54.498;18.544;2023-07-13T07:57:31;21.75;60.84
71206;SHT31;58935;54.498;18.544;2023-07-13T08:02:42;21.77;59.77
71206;SHT31;58935;54.498;18.544;2023-07-13T08:05:08;21.83;59.88
71206;SHT31;58935;54.498;18.544;2023-07-13T08:07:35;21.91;59.63
71206;SHT31;58935;54.498;18.544;2023-07-13T08:10:02;22.01;60.07
71206;SHT31;58935;54.498;18.544;2023-07-13T08:12:29;22.07;60.44
71206;SHT31;58935;54.498;18.544;2023-07-13T08:14:54;22.08;60.59
71206;SHT31;58935;54.498;18.544;2023-07-13T08:17:22;22.09;59.91
71206;SHT31;58935;54.498;18.544;2023-07-13T08:19:49;22.03;59.38
71206;SHT31;58935;54.498;18.544;2023-07-13T08:22:15;21.99;59.86
71206;SHT31;58935;54.498;18.544;2023-07-13T08:24:40;21.92;59.63
71206;SHT31;58935;54.498;18.544;2023-07-13T08:27:07;21.94;60.41
71206;SHT31;58935;54.498;18.544;2023-07-13T08:29:33;21.99;59.63
71206;SHT31;58935;54.498;18.544;2023-07-13T08:31:59;22.04;59.50
71206;SHT31;58935;54.498;18.544;2023-07-13T08:34:24;22.13;59.84
71206;SHT31;58935;54.498;18.544;2023-07-13T08:36:50;22.24;59.28
71206;SHT31;58935;54.498;18.544;2023-07-13T08:39:15;22.32;59.69
71206;SHT31;58935;54.498;18.544;2023-07-13T08:41:40;22.35;58.62
71206;SHT31;58935;54.498;18.544;2023-07-13T08:44:07;22.33;58.33
71206;SHT31;58935;54.498;18.544;2023-07-13T08:46:51;22.27;57.29
71206;SHT31;58935;54.498;18.544;2023-07-13T08:49:21;22.24;57.24
71206;SHT31;58935;54.498;18.544;2023-07-13T08:51:50;22.28;57.25
71206;SHT31;58935;54.498;18.544;2023-07-13T08:54:32;22.37;57.55
71206;SHT31;58935;54.498;18.544;2023-07-13T08:57:14;22.49;57.12
71206;SHT31;58935;54.498;18.544;2023-07-13T08:59:44;22.60;57.38
71206;SHT31;58935;54.498;18.544;2023-07-13T09:02:16;22.75;57.56
71206;SHT31;58935;54.498;18.544;2023-07-13T09:05:09;22.88;56.91
71206;SHT31;58935;54.498;18.544;2023-07-13T09:07:44;23.00;55.26
71206;SHT31;58935;54.498;18.544;2023-07-13T09:10:44;23.06;54.99
71206;SHT31;58935;54.498;18.544;2023-07-13T09:13:19;23.12;55.44
71206;SHT31;58935;54.498;18.544;2023-07-13T09:15:58;23.17;55.31
71206;SHT31;58935;54.498;18.544;2023-07-13T09:18:27;23.16;55.48
71206;SHT31;58935;54.498;18.544;2023-07-13T09:21:02;23.13;55.39
71206;SHT31;58935;54.498;18.544;2023-07-13T09:23:35;23.16;55.37
71206;SHT31;58935;54.498;18.544;2023-07-13T09:26:06;23.23;55.74
71206;SHT31;58935;54.498;18.544;2023-07-13T09:28:47;23.32;56.05
71206;SHT31;58935;54.498;18.544;2023-07-13T09:31:26;23.44;55.88
71206;SHT31;58935;54.498;18.544;2023-07-13T09:33:58;23.55;55.64
71206;SHT31;58935;54.498;18.544;2023-07-13T09:36:27;23.60;53.66
71206;SHT31;58935;54.498;18.544;2023-07-13T09:38:59;23.61;53.38
71206;SHT31;58935;54.498;18.544;2023-07-13T09:41:41;23.59;52.90
71206;SHT31;58935;54.498;18.544;2023-07-13T09:44:27;23.48;52.84
71206;SHT31;58935;54.498;18.544;2023-07-13T09:46:56;23.37;52.87
71206;SHT31;58935;54.498;18.544;2023-07-13T09:49:26;23.26;53.25
71206;SHT31;58935;54.498;18.544;2023-07-13T09:54:36;23.13;54.87
71206;SHT31;58935;54.498;18.544;2023-07-13T09:57:03;23.09;54.79
71206;SHT31;58935;54.498;18.544;2023-07-13T10:05:03;23.27;55.56
71206;SHT31;58935;54.498;18.544;2023-07-13T10:07:39;23.33;55.22
71206;SHT31;58935;54.498;18.544;2023-07-13T10:10:16;23.30;54.15
71206;SHT31;58935;54.498;18.544;2023-07-13T10:12:46;23.21;54.35
71206;SHT31;58935;54.498;18.544;2023-07-13T10:15:16;23.15;54.03
71206;SHT31;58935;54.498;18.544;2023-07-13T10:17:51;23.10;54.27
71206;SHT31;58935;54.498;18.544;2023-07-13T10:20:20;23.08;54.16
71206;SHT31;58935;54.498;18.544;2023-07-13T10:25:28;23.02;55.19
71206;SHT31;58935;54.498;18.544;2023-07-13T10:28:04;22.99;55.37
71206;SHT31;58935;54.498;18.544;2023-07-13T10:30:52;23.01;56.12
71206;SHT31;58935;54.498;18.544;2023-07-13T10:33:20;23.08;56.25
71206;SHT31;58935;54.498;18.544;2023-07-13T10:35:47;23.12;55.55
71206;SHT31;58935;54.498;18.544;2023-07-13T10:38:20;23.10;55.16
71206;SHT31;58935;54.498;18.544;2023-07-13T10:40:55;23.08;59.05
71206;SHT31;58935;54.498;18.544;2023-07-13T10:43:31;23.01;60.68
71206;SHT31;58935;54.498;18.544;2023-07-13T10:46:02;22.98;61.23
71206;SHT31;58935;54.498;18.544;2023-07-13T10:48:32;22.91;61.91
71206;SHT31;58935;54.498;18.544;2023-07-13T10:51:01;22.80;62.39
71206;SHT31;58935;54.498;18.544;2023-07-13T10:53:32;22.69;63.02
71206;SHT31;58935;54.498;18.544;2023-07-13T10:56:05;22.60;63.81
71206;SHT31;58935;54.498;18.544;2023-07-13T10:59:01;22.46;64.59
71206;SHT31;58935;54.498;18.544;2023-07-13T11:01:40;22.43;64.92
71206;SHT31;58935;54.498;18.544;2023-07-13T11:04:16;22.50;64.45
71206;SHT31;58935;54.498;18.544;2023-07-13T11:06:45;22.55;64.50
71206;SHT31;58935;54.498;18.544;2023-07-13T11:12:09;22.49;64.06
71206;SHT31;58935;54.498;18.544;2023-07-13T11:15:04;22.52;64.20
71206;SHT31;58935;54.498;18.544;2023-07-13T11:17:37;22.58;64.12
71206;SHT31;58935;54.498;18.544;2023-07-13T11:25:46;22.32;63.28
71206;SHT31;58935;54.498;18.544;2023-07-13T11:28:17;22.17;64.45
71206;SHT31;58935;54.498;18.544;2023-07-13T11:30:50;22.10;65.71
71206;SHT31;58935;54.498;18.544;2023-07-13T11:36:16;21.95;66.13
71206;SHT31;58935;54.498;18.544;2023-07-13T11:38:57;21.89;66.42
71206;SHT31;58935;54.498;18.544;2023-07-13T11:41:30;21.83;66.23
71206;SHT31;58935;54.498;18.544;2023-07-13T11:46:47;21.88;66.59
71206;SHT31;58935;54.498;18.544;2023-07-13T11:49:18;21.95;66.67
71206;SHT31;58935;54.498;18.544;2023-07-13T11:51:46;22.05;66.51
71206;SHT31;58935;54.498;18.544;2023-07-13T11:54:26;22.13;66.49
71206;SHT31;58935;54.498;18.544;2023-07-13T11:56:59;22.15;66.17
71206;SHT31;58935;54.498;18.544;2023-07-13T11:59:33;22.05;65.90
71206;SHT31;58935;54.498;18.544;2023-07-13T12:02:08;21.96;65.66
71206;SHT31;58935;54.498;18.544;2023-07-13T12:04:49;21.90;65.61
71206;SHT31;58935;54.498;18.544;2023-07-13T12:07:17;21.91;65.41
71206;SHT31;58935;54.498;18.544;2023-07-13T12:09:44;22.04;65.29
71206;SHT31;58935;54.498;18.544;2023-07-13T12:12:11;22.05;64.75
71206;SHT31;58935;54.498;18.544;2023-07-13T12:14:38;22.01;65.12
71206;SHT31;58935;54.498;18.544;2023-07-13T12:17:10;21.97;65.27
71206;SHT31;58935;54.498;18.544;2023-07-13T12:19:45;21.89;65.47
71206;SHT31;58935;54.498;18.544;2023-07-13T12:22:14;21.82;65.46
71206;SHT31;58935;54.498;18.544;2023-07-13T12:24:43;21.78;65.39
71206;SHT31;58935;54.498;18.544;2023-07-13T12:27:13;21.77;65.10
71206;SHT31;58935;54.498;18.544;2023-07-13T12:29:51;21.95;64.74
71206;SHT31;58935;54.498;18.544;2023-07-13T12:32:26;22.11;64.54
71206;SHT31;58935;54.498;18.544;2023-07-13T12:34:55;22.12;64.76
71206;SHT31;58935;54.498;18.544;2023-07-13T12:37:41;22.14;64.44
71206;SHT31;58935;54.498;18.544;2023-07-13T12:42:50;22.33;64.37
71206;SHT31;58935;54.498;18.544;2023-07-13T12:45:22;22.50;64.30
71206;SHT31;58935;54.498;18.544;2023-07-13T12:47:55;22.61;63.74
71206;SHT31;58935;54.498;18.544;2023-07-13T12:50:28;22.68;62.73
71206;SHT31;58935;54.498;18.544;2023-07-13T12:52:59;22.69;62.57
71206;SHT31;58935;54.498;18.544;2023-07-13T12:55:28;22.79;62.98
71206;SHT31;58935;54.498;18.544;2023-07-13T12:58:36;22.94;62.27
71206;SHT31;58935;54.498;18.544;2023-07-13T13:01:07;23.07;61.78
71206;SHT31;58935;54.498;18.544;2023-07-13T13:03:36;23.20;61.66
71206;SHT31;58935;54.498;18.544;2023-07-13T13:06:17;23.34;61.93
71206;SHT31;58935;54.498;18.544;2023-07-13T13:08:50;23.52;61.53
71206;SHT31;58935;54.498;18.544;2023-07-13T13:11:20;23.66;61.44
71206;SHT31;58935;54.498;18.544;2023-07-13T13:13:48;23.70;60.38
71206;SHT31;58935;54.498;18.544;2023-07-13T13:19:00;23.47;57.62
71206;SHT31;58935;54.498;18.544;2023-07-13T13:21:42;23.28;58.05
71206;SHT31;58935;54.498;18.544;2023-07-13T13:24:11;23.23;58.25
71206;SHT31;58935;54.498;18.544;2023-07-13T13:26:43;23.21;58.77
71206;SHT31;58935;54.498;18.544;2023-07-13T13:29:14;23.30;59.01
71206;SHT31;58935;54.498;18.544;2023-07-13T13:31:42;23.34;58.65
71206;SHT31;58935;54.498;18.544;2023-07-13T13:34:09;23.36;58.48
71206;SHT31;58935;54.498;18.544;2023-07-13T13:36:38;23.40;58.64
71206;SHT31;58935;54.498;18.544;2023-07-13T13:39:07;23.49;58.42
71206;SHT31;58935;54.498;18.544;2023-07-13T13:41:45;23.48;58.50
71206;SHT31;58935;54.498;18.544;2023-07-13T13:44:12;23.45;58.55
71206;SHT31;58935;54.498;18.544;2023-07-13T13:46:40;23.34;58.53
71206;SHT31;58935;54.498;18.544;2023-07-13T13:49:17;23.16;58.87
71206;SHT31;58935;54.498;18.544;2023-07-13T13:51:48;23.05;59.74
71206;SHT31;58935;54.498;18.544;2023-07-13T13:54:14;23.14;59.79
71206;SHT31;58935;54.498;18.544;2023-07-13T13:56:42;23.16;59.07
71206;SHT31;58935;54.498;18.544;2023-07-13T13:59:10;23.11;59.36
71206;SHT31;58935;54.498;18.544;2023-07-13T14:01:37;23.10;59.21
71206;SHT31;58935;54.498;18.544;2023-07-13T14:04:03;22.98;59.79
71206;SHT31;58935;54.498;18.544;2023-07-13T14:06:31;22.92;59.93
71206;SHT31;58935;54.498;18.544;2023-07-13T14:08:58;22.88;59.86
71206;SHT31;58935;54.498;18.544;2023-07-13T14:11:26;22.81;60.19
71206;SHT31;58935;54.498;18.544;2023-07-13T14:13:56;22.69;60.60
71206;SHT31;58935;54.498;18.544;2023-07-13T14:16:26;22.54;61.07
71206;SHT31;58935;54.498;18.544;2023-07-13T14:18:56;22.49;61.34
71206;SHT31;58935;54.498;18.544;2023-07-13T14:21:25;22.53;61.43
71206;SHT31;58935;54.498;18.544;2023-07-13T14:23:53;22.53;61.44
71206;SHT31;58935;54.498;18.544;2023-07-13T14:26:22;22.41;60.94
71206;SHT31;58935;54.498;18.544;2023-07-13T14:28:51;22.30;60.84
71206;SHT31;58935;54.498;18.544;2023-07-13T14:31:21;22.14;61.21
71206;SHT31;58935;54.498;18.544;2023-07-13T14:33:49;22.03;61.48
71206;SHT31;58935;54.498;18.544;2023-07-13T14:36:21;21.85;61.41
71206;SHT31;58935;54.498;18.544;2023-07-13T14:38:54;21.68;61.76
71206;SHT31;58935;54.498;18.544;2023-07-13T14:41:22;21.59;61.56
71206;SHT31;58935;54.498;18.544;2023-07-13T14:43:48;21.53;61.47
71206;SHT31;58935;54.498;18.544;2023-07-13T14:46:24;21.60;61.46
71206;SHT31;58935;54.498;18.544;2023-07-13T14:49:00;21.59;61.17
71206;SHT31;58935;54.498;18.544;2023-07-13T14:51:31;21.57;61.19
71206;SHT31;58935;54.498;18.544;2023-07-13T14:54:00;21.46;61.30
71206;SHT31;58935;54.498;18.544;2023-07-13T14:56:28;21.34;61.42
71206;SHT31;58935;54.498;18.544;2023-07-13T14:58:53;21.28;61.97
71206;SHT31;58935;54.498;18.544;2023-07-13T15:01:19;21.38;61.84
71206;SHT31;58935;54.498;18.544;2023-07-13T15:03:47;21.39;61.65
71206;SHT31;58935;54.498;18.544;2023-07-13T15:06:15;21.37;61.65
71206;SHT31;58935;54.498;18.544;2023-07-13T15:08:42;21.49;60.89
71206;SHT31;58935;54.498;18.544;2023-07-13T15:11:08;21.62;60.53
71206;SHT31;58935;54.498;18.544;2023-07-13T15:13:37;21.81;60.45
71206;SHT31;58935;54.498;18.544;2023-07-13T15:16:05;22.01;59.53
71206;SHT31;58935;54.498;18.544;2023-07-13T15:18:42;22.15;58.60
71206;SHT31;58935;54.498;18.544;2023-07-13T15:21:09;22.21;57.28
71206;SHT31;58935;54.498;18.544;2023-07-13T15:23:42;22.37;56.39
71206;SHT31;58935;54.498;18.544;2023-07-13T15:26:10;22.47;56.21
71206;SHT31;58935;54.498;18.544;2023-07-13T15:28:42;22.59;55.75
71206;SHT31;58935;54.498;18.544;2023-07-13T15:31:17;22.72;55.37
71206;SHT31;58935;54.498;18.544;2023-07-13T15:33:49;22.87;55.13
71206;SHT31;58935;54.498;18.544;2023-07-13T15:36:18;22.97;53.94
71206;SHT31;58935;54.498;18.544;2023-07-13T15:38:45;22.95;54.70
71206;SHT31;58935;54.498;18.544;2023-07-13T15:43:53;23.00;54.59
71206;SHT31;58935;54.498;18.544;2023-07-13T15:46:24;23.08;54.31
71206;SHT31;58935;54.498;18.544;2023-07-13T15:48:53;23.18;54.12
71206;SHT31;58935;54.498;18.544;2023-07-13T15:51:23;23.28;54.28
71206;SHT31;58935;54.498;18.544;2023-07-13T15:53:55;23.39;54.29
71206;SHT31;58935;54.498;18.544;2023-07-13T15:56:29;23.50;53.62
71206;SHT31;58935;54.498;18.544;2023-07-13T15:58:59;23.60;53.79
71206;SHT31;58935;54.498;18.544;2023-07-13T16:01:25;23.53;53.52
71206;SHT31;58935;54.498;18.544;2023-07-13T16:03:52;23.45;53.09
71206;SHT31;58935;54.498;18.544;2023-07-13T16:06:22;23.47;52.98
71206;SHT31;58935;54.498;18.544;2023-07-13T16:08:56;23.54;53.01
71206;SHT31;58935;54.498;18.544;2023-07-13T16:11:23;23.62;52.51